sensor_id;sensor_type;location;lat;lon;timestamp;temperature;humidity
44223;DHT22;29895;48.804;9.386;2024-03-08T00:02:00;2.20;99.90
44223;DHT22;29895;48.804;9.386;2024-03-08T00:04:25;2.20;99.90
44223;DHT22;29895;48.804;9.386;2024-03-08T00:06:51;2.20;99.90
44223;DHT22;29895;48.804;9.386;2024-03-08T00:09:17;2.40;99.90
44223;DHT22;29895;48.804;9.386;2024-03-08T00:11:42;2.40;99.90
44223;DHT22;29895;48.804;9.386;2024-03-08T00:14:08;2.40;99.90
44223;DHT22;29895;48.804;9.386;2024-03-08T00:16:34;2.50;99.90
44223;DHT22;29895;48.804;9.386;2024-03-08T00:19:01;2.40;99.90
44223;DHT22;29895;48.804;9.386;2024-03-08T00:21:26;2.40;99.90
44223;DHT22;29895;48.804;9.386;2024-03-08T00:23:53;2.40;99.90
44223;DHT22;29895;48.804;9.386;2024-03-08T00:26:21;2.30;99.90
44223;DHT22;29895;48.804;9.386;2024-03-08T00:28:49;2.30;99.90
44223;DHT22;29895;48.804;9.386;2024-03-08T00:31:15;2.20;99.90
44223;DHT22;29895;48.804;9.386;2024-03-08T00:33:44;2.10;99.90
44223;DHT22;29895;48.804;9.386;2024-03-08T00:36:09;2.20;99.90
44223;DHT22;29895;48.804;9.386;2024-03-08T00:38:35;2.10;99.90
44223;DHT22;29895;48.804;9.386;2024-03-08T00:41:00;2.10;99.90
44223;DHT22;29895;48.804;9.386;2024-03-08T00:43:27;2.10;99.90
44223;DHT22;29895;48.804;9.386;2024-03-08T00:45:53;2.10;99.90
44223;DHT22;29895;48.804;9.386;2024-03-08T00:48:18;2.00;99.90
44223;DHT22;29895;48.804;9.386;2024-03-08T00:50:44;2.00;99.90
44223;DHT22;29895;48.804;9.386;2024-03-08T00:53:12;2.00;99.90
44223;DHT22;29895;48.804;9.386;2024-03-08T00:55:38;2.10;99.90
44223;DHT22;29895;48.804;9.386;2024-03-08T00:58:04;2.10;99.90
44223;DHT22;29895;48.804;9.386;2024-03-08T01:00:30;2.10;99.90
44223;DHT22;29895;48.804;9.386;2024-03-08T01:02:56;2.10;99.90
44223;DHT22;29895;48.804;9.386;2024-03-08T01:05:22;2.30;99.90
44223;DHT22;29895;48.804;9.386;2024-03-08T01:07:50;2.50;99.90
44223;DHT22;29895;48.804;9.386;2024-03-08T01:10:16;2.50;99.90
44223;DHT22;29895;48.804;9.386;2024-03-08T01:12:41;2.30;99.90
44223;DHT22;29895;48.804;9.386;2024-03-08T01:15:09;2.30;99.90
44223;DHT22;29895;48.804;9.386;2024-03-08T01:17:36;2.30;99.90
44223;DHT22;29895;48.804;9.386;2024-03-08T01:20:02;2.30;99.90
44223;DHT22;29895;48.804;9.386;2024-03-08T01:22:28;2.30;99.90
44223;DHT22;29895;48.804;9.386;2024-03-08T01:24:55;2.20;99.90
44223;DHT22;29895;48.804;9.386;2024-03-08T01:27:21;2.10;99.90
44223;DHT22;29895;48.804;9.386;2024-03-08T01:29:47;2.10;99.90
44223;DHT22;29895;48.804;9.386;2024-03-08T01:32:13;2.00;99.90
44223;DHT22;29895;48.804;9.386;2024-03-08T01:34:39;1.90;99.90
44223;DHT22;29895;48.804;9.386;2024-03-08T01:37:04;1.90;99.90
44223;DHT22;29895;48.804;9.386;2024-03-08T01:39:30;2.00;99.90
44223;DHT22;29895;48.804;9.386;2024-03-08T01:41:57;2.00;99.90
44223;DHT22;29895;48.804;9.386;2024-03-08T01:44:23;1.90;99.90
44223;DHT22;29895;48.804;9.386;2024-03-08T01:46:50;1.90;99.90
44223;DHT22;29895;48.804;9.386;2024-03-08T01:49:18;1.80;99.90
44223;DHT22;29895;48.804;9.386;2024-03-08T01:51:46;1.70;99.90
44223;DHT22;29895;48.804;9.386;2024-03-08T01:54:12;1.70;99.90
44223;DHT22;29895;48.804;9.386;2024-03-08T01:56:40;1.70;99.90
44223;DHT22;29895;48.804;9.386;2024-03-08T01:59:06;1.60;99.90
44223;DHT22;29895;48.804;9.386;2024-03-08T02:01:33;1.50;99.90
44223;DHT22;29895;48.804;9.386;2024-03-08T02:03:59;1.40;99.90
44223;DHT22;29895;48.804;9.386;2024-03-08T02:06:24;1.30;99.90
44223;DHT22;29895;48.804;9.386;2024-03-08T02:08:50;1.30;99.90
44223;DHT22;29895;48.804;9.386;2024-03-08T02:11:16;1.20;99.90
44223;DHT22;29895;48.804;9.386;2024-03-08T02:13:42;1.20;99.90
44223;DHT22;29895;48.804;9.386;2024-03-08T02:16:08;1.20;99.90
44223;DHT22;29895;48.804;9.386;2024-03-08T02:18:34;1.10;99.90
44223;DHT22;29895;48.804;9.386;2024-03-08T02:21:01;1.10;99.90
44223;DHT22;29895;48.804;9.386;2024-03-08T02:23:30;1.00;99.90
44223;DHT22;29895;48.804;9.386;2024-03-08T02:25:56;0.90;99.90
44223;DHT22;29895;48.804;9.386;2024-03-08T02:28:22;0.80;99.90
44223;DHT22;29895;48.804;9.386;2024-03-08T02:30:51;0.80;99.90
44223;DHT22;29895;48.804;9.386;2024-03-08T02:33:21;0.80;99.90
44223;DHT22;29895;48.804;9.386;2024-03-08T02:35:47;0.80;99.90
44223;DHT22;29895;48.804;9.386;2024-03-08T02:38:22;0.70;99.90
44223;DHT22;29895;48.804;9.386;2024-03-08T02:40:50;0.70;99.90
44223;DHT22;29895;48.804;9.386;2024-03-08T02:43:17;0.70;99.90
44223;DHT22;29895;48.804;9.386;2024-03-08T02:45:43;0.70;99.90
44223;DHT22;29895;48.804;9.386;2024-03-08T02:48:09;0.80;99.90
44223;DHT22;29895;48.804;9.386;2024-03-08T02:50:36;0.90;99.90
44223;DHT22;29895;48.804;9.386;2024-03-08T02:53:02;0.90;99.90
44223;DHT22;29895;48.804;9.386;2024-03-08T02:55:28;0.90;99.90
44223;DHT22;29895;48.804;9.386;2024-03-08T02:57:53;0.90;99.90
44223;DHT22;29895;48.804;9.386;2024-03-08T03:00:23;0.90;99.90
44223;DHT22;29895;48.804;9.386;2024-03-08T03:02:49;0.90;99.90
44223;DHT22;29895;48.804;9.386;2024-03-08T03:05:21;0.90;99.90
44223;DHT22;29895;48.804;9.386;2024-03-08T03:07:46;0.90;99.90
44223;DHT22;29895;48.804;9.386;2024-03-08T03:10:14;1.00;99.90
44223;DHT22;29895;48.804;9.386;2024-03-08T03:12:42;1.00;99.90
44223;DHT22;29895;48.804;9.386;2024-03-08T03:15:08;1.00;99.90
44223;DHT22;29895;48.804;9.386;2024-03-08T03:17:34;1.10;99.90
44223;DHT22;29895;48.804;9.386;2024-03-08T03:20:00;1.10;99.90
44223;DHT22;29895;48.804;9.386;2024-03-08T03:22:34;1.10;99.90
44223;DHT22;29895;48.804;9.386;2024-03-08T03:25:00;1.00;99.90
44223;DHT22;29895;48.804;9.386;2024-03-08T03:27:28;1.10;99.90
44223;DHT22;29895;48.804;9.386;2024-03-08T03:29:55;1.20;99.90
44223;DHT22;29895;48.804;9.386;2024-03-08T03:32:23;1.20;99.90
44223;DHT22;29895;48.804;9.386;2024-03-08T03:34:49;1.20;99.90
44223;DHT22;29895;48.804;9.386;2024-03-08T03:37:18;1.10;99.90
44223;DHT22;29895;48.804;9.386;2024-03-08T03:39:45;1.10;99.90
44223;DHT22;29895;48.804;9.386;2024-03-08T03:42:17;1.00;99.90
44223;DHT22;29895;48.804;9.386;2024-03-08T03:44:47;1.00;99.90
44223;DHT22;29895;48.804;9.386;2024-03-08T03:47:13;1.00;99.90
44223;DHT22;29895;48.804;9.386;2024-03-08T03:49:43;1.00;99.90
44223;DHT22;29895;48.804;9.386;2024-03-08T03:52:09;1.00;99.90
44223;DHT22;29895;48.804;9.386;2024-03-08T03:54:35;1.00;99.90
44223;DHT22;29895;48.804;9.386;2024-03-08T03:57:01;1.00;99.90
44223;DHT22;29895;48.804;9.386;2024-03-08T03:59:28;1.00;99.90
44223;DHT22;29895;48.804;9.386;2024-03-08T04:01:54;1.00;99.90
44223;DHT22;29895;48.804;9.386;2024-03-08T04:04:23;1.00;99.90
44223;DHT22;29895;48.804;9.386;2024-03-08T04:06:50;1.00;99.90
44223;DHT22;29895;48.804;9.386;2024-03-08T04:09:16;0.90;99.90
44223;DHT22;29895;48.804;9.386;2024-03-08T04:11:44;0.90;99.90
44223;DHT22;29895;48.804;9.386;2024-03-08T04:14:10;0.90;99.90
44223;DHT22;29895;48.804;9.386;2024-03-08T04:16:35;0.90;99.90
44223;DHT22;29895;48.804;9.386;2024-03-08T04:19:02;0.90;99.90
44223;DHT22;29895;48.804;9.386;2024-03-08T04:21:32;0.80;99.90
44223;DHT22;29895;48.804;9.386;2024-03-08T04:23:58;0.90;99.90
44223;DHT22;29895;48.804;9.386;2024-03-08T04:26:23;0.90;99.90
44223;DHT22;29895;48.804;9.386;2024-03-08T04:28:49;1.00;99.90
44223;DHT22;29895;48.804;9.386;2024-03-08T04:31:15;1.10;99.90
44223;DHT22;29895;48.804;9.386;2024-03-08T04:33:41;1.00;99.90
44223;DHT22;29895;48.804;9.386;2024-03-08T04:36:07;1.10;99.90
44223;DHT22;29895;48.804;9.386;2024-03-08T04:38:33;1.00;99.90
44223;DHT22;29895;48.804;9.386;2024-03-08T04:40:59;1.00;99.90
44223;DHT22;29895;48.804;9.386;2024-03-08T04:43:28;1.00;99.90
44223;DHT22;29895;48.804;9.386;2024-03-08T04:45:55;1.00;99.90
44223;DHT22;29895;48.804;9.386;2024-03-08T04:48:21;1.00;99.90
44223;DHT22;29895;48.804;9.386;2024-03-08T04:50:47;1.00;99.90
44223;DHT22;29895;48.804;9.386;2024-03-08T04:53:12;1.10;99.90
44223;DHT22;29895;48.804;9.386;2024-03-08T04:55:38;1.20;99.90
44223;DHT22;29895;48.804;9.386;2024-03-08T04:58:04;1.30;99.90
44223;DHT22;29895;48.804;9.386;2024-03-08T05:00:31;1.40;99.90
44223;DHT22;29895;48.804;9.386;2024-03-08T05:02:58;1.50;99.90
44223;DHT22;29895;48.804;9.386;2024-03-08T05:05:23;1.50;99.90
44223;DHT22;29895;48.804;9.386;2024-03-08T05:07:50;1.50;99.90
44223;DHT22;29895;48.804;9.386;2024-03-08T05:10:16;1.60;99.90
44223;DHT22;29895;48.804;9.386;2024-03-08T05:12:43;1.60;99.90
44223;DHT22;29895;48.804;9.386;2024-03-08T05:15:09;1.60;99.90
44223;DHT22;29895;48.804;9.386;2024-03-08T05:17:35;1.60;99.90
44223;DHT22;29895;48.804;9.386;2024-03-08T05:20:01;1.50;99.90
44223;DHT22;29895;48.804;9.386;2024-03-08T05:22:27;1.60;99.90
44223;DHT22;29895;48.804;9.386;2024-03-08T05:24:53;1.60;99.90
44223;DHT22;29895;48.804;9.386;2024-03-08T05:27:19;1.60;99.90
44223;DHT22;29895;48.804;9.386;2024-03-08T05:29:44;1.70;99.90
44223;DHT22;29895;48.804;9.386;2024-03-08T05:32:11;1.80;99.90
44223;DHT22;29895;48.804;9.386;2024-03-08T05:34:37;1.80;99.90
44223;DHT22;29895;48.804;9.386;2024-03-08T05:37:04;1.80;99.90
44223;DHT22;29895;48.804;9.386;2024-03-08T05:39:30;1.70;99.90
44223;DHT22;29895;48.804;9.386;2024-03-08T05:41:56;1.80;99.90
44223;DHT22;29895;48.804;9.386;2024-03-08T05:44:21;1.80;99.90
44223;DHT22;29895;48.804;9.386;2024-03-08T05:46:47;1.80;99.90
44223;DHT22;29895;48.804;9.386;2024-03-08T05:49:13;1.80;99.90
44223;DHT22;29895;48.804;9.386;2024-03-08T05:51:40;1.80;99.90
44223;DHT22;29895;48.804;9.386;2024-03-08T05:54:07;1.80;99.90
44223;DHT22;29895;48.804;9.386;2024-03-08T05:56:35;1.90;99.90
44223;DHT22;29895;48.804;9.386;2024-03-08T05:59:01;1.90;99.90
44223;DHT22;29895;48.804;9.386;2024-03-08T06:01:27;2.00;99.90
44223;DHT22;29895;48.804;9.386;2024-03-08T06:03:53;2.10;99.90
44223;DHT22;29895;48.804;9.386;2024-03-08T06:06:21;2.20;99.90
44223;DHT22;29895;48.804;9.386;2024-03-08T06:08:48;2.20;99.90
44223;DHT22;29895;48.804;9.386;2024-03-08T06:11:18;2.40;99.90
44223;DHT22;29895;48.804;9.386;2024-03-08T06:13:47;2.40;99.90
44223;DHT22;29895;48.804;9.386;2024-03-08T06:16:12;2.50;99.90
44223;DHT22;29895;48.804;9.386;2024-03-08T06:18:38;2.50;99.90
44223;DHT22;29895;48.804;9.386;2024-03-08T06:21:07;2.60;99.90
44223;DHT22;29895;48.804;9.386;2024-03-08T06:23:35;2.60;99.90
44223;DHT22;29895;48.804;9.386;2024-03-08T06:26:07;2.70;99.90
44223;DHT22;29895;48.804;9.386;2024-03-08T06:28:32;2.70;99.90
44223;DHT22;29895;48.804;9.386;2024-03-08T06:30:59;2.80;99.90
44223;DHT22;29895;48.804;9.386;2024-03-08T06:33:25;2.90;99.90
44223;DHT22;29895;48.804;9.386;2024-03-08T06:35:54;2.90;99.90
44223;DHT22;29895;48.804;9.386;2024-03-08T06:38:23;2.90;99.90
44223;DHT22;29895;48.804;9.386;2024-03-08T06:40:48;3.00;99.90
44223;DHT22;29895;48.804;9.386;2024-03-08T06:43:14;3.10;99.90
44223;DHT22;29895;48.804;9.386;2024-03-08T06:45:47;3.10;99.90
44223;DHT22;29895;48.804;9.386;2024-03-08T06:48:18;3.20;99.90
44223;DHT22;29895;48.804;9.386;2024-03-08T06:50:47;3.30;99.90
44223;DHT22;29895;48.804;9.386;2024-03-08T06:53:13;3.30;99.90
44223;DHT22;29895;48.804;9.386;2024-03-08T06:55:39;3.30;99.90
44223;DHT22;29895;48.804;9.386;2024-03-08T06:58:05;3.30;99.90
44223;DHT22;29895;48.804;9.386;2024-03-08T07:00:33;3.30;99.90
44223;DHT22;29895;48.804;9.386;2024-03-08T07:02:58;3.40;99.90
44223;DHT22;29895;48.804;9.386;2024-03-08T07:05:28;3.40;99.90
44223;DHT22;29895;48.804;9.386;2024-03-08T07:07:54;3.40;99.90
44223;DHT22;29895;48.804;9.386;2024-03-08T07:10:23;3.50;99.90
44223;DHT22;29895;48.804;9.386;2024-03-08T07:12:50;3.50;99.90
44223;DHT22;29895;48.804;9.386;2024-03-08T07:15:16;3.60;99.90
44223;DHT22;29895;48.804;9.386;2024-03-08T07:17:47;3.60;99.90
44223;DHT22;29895;48.804;9.386;2024-03-08T07:20:16;3.50;99.90
44223;DHT22;29895;48.804;9.386;2024-03-08T07:22:47;3.60;99.90
44223;DHT22;29895;48.804;9.386;2024-03-08T07:25:14;3.60;99.90
44223;DHT22;29895;48.804;9.386;2024-03-08T07:27:55;3.60;99.90
44223;DHT22;29895;48.804;9.386;2024-03-08T07:30:25;3.60;99.90
44223;DHT22;29895;48.804;9.386;2024-03-08T07:33:10;3.50;99.90
44223;DHT22;29895;48.804;9.386;2024-03-08T07:35:39;3.50;99.90
44223;DHT22;29895;48.804;9.386;2024-03-08T07:38:06;3.50;99.90
44223;DHT22;29895;48.804;9.386;2024-03-08T07:40:41;3.50;99.90
44223;DHT22;29895;48.804;9.386;2024-03-08T07:43:10;3.50;99.90
44223;DHT22;29895;48.804;9.386;2024-03-08T07:45:37;3.50;99.90
44223;DHT22;29895;48.804;9.386;2024-03-08T07:48:03;3.50;99.90
44223;DHT22;29895;48.804;9.386;2024-03-08T07:50:29;3.60;99.90
44223;DHT22;29895;48.804;9.386;2024-03-08T07:52:55;3.50;99.90
44223;DHT22;29895;48.804;9.386;2024-03-08T07:55:20;3.50;99.90
44223;DHT22;29895;48.804;9.386;2024-03-08T07:57:49;3.50;99.90
44223;DHT22;29895;48.804;9.386;2024-03-08T08:00:15;3.60;99.90
44223;DHT22;29895;48.804;9.386;2024-03-08T08:02:46;3.50;99.90
44223;DHT22;29895;48.804;9.386;2024-03-08T08:05:14;3.40;99.90
44223;DHT22;29895;48.804;9.386;2024-03-08T08:07:39;3.50;99.90
44223;DHT22;29895;48.804;9.386;2024-03-08T08:10:09;3.60;99.90
44223;DHT22;29895;48.804;9.386;2024-03-08T08:12:40;3.70;99.90
44223;DHT22;29895;48.804;9.386;2024-03-08T08:15:07;3.80;99.90
44223;DHT22;29895;48.804;9.386;2024-03-08T08:17:33;3.70;99.90
44223;DHT22;29895;48.804;9.386;2024-03-08T08:20:00;3.60;99.90
44223;DHT22;29895;48.804;9.386;2024-03-08T08:22:26;3.60;99.90
44223;DHT22;29895;48.804;9.386;2024-03-08T08:24:51;3.70;99.90
44223;DHT22;29895;48.804;9.386;2024-03-08T08:27:17;3.90;99.90
44223;DHT22;29895;48.804;9.386;2024-03-08T08:29:43;4.00;99.90
44223;DHT22;29895;48.804;9.386;2024-03-08T08:32:11;4.00;99.90
44223;DHT22;29895;48.804;9.386;2024-03-08T08:34:37;3.90;99.90
44223;DHT22;29895;48.804;9.386;2024-03-08T08:37:03;3.90;99.90
44223;DHT22;29895;48.804;9.386;2024-03-08T08:39:28;3.90;99.90
44223;DHT22;29895;48.804;9.386;2024-03-08T08:41:54;3.90;99.90
44223;DHT22;29895;48.804;9.386;2024-03-08T08:44:19;3.90;99.90
44223;DHT22;29895;48.804;9.386;2024-03-08T08:46:45;3.80;99.90
44223;DHT22;29895;48.804;9.386;2024-03-08T08:49:11;3.90;99.90
44223;DHT22;29895;48.804;9.386;2024-03-08T08:51:40;4.00;99.90
44223;DHT22;29895;48.804;9.386;2024-03-08T08:54:05;3.90;99.90
44223;DHT22;29895;48.804;9.386;2024-03-08T08:56:35;3.90;99.90
44223;DHT22;29895;48.804;9.386;2024-03-08T08:59:00;3.90;99.90
44223;DHT22;29895;48.804;9.386;2024-03-08T09:01:26;3.80;99.90
44223;DHT22;29895;48.804;9.386;2024-03-08T09:03:52;3.90;99.90
44223;DHT22;29895;48.804;9.386;2024-03-08T09:06:19;4.10;99.90
44223;DHT22;29895;48.804;9.386;2024-03-08T09:08:45;4.30;99.90
44223;DHT22;29895;48.804;9.386;2024-03-08T09:11:11;4.40;99.90
44223;DHT22;29895;48.804;9.386;2024-03-08T09:13:36;4.20;99.90
44223;DHT22;29895;48.804;9.386;2024-03-08T09:16:03;4.20;99.90
44223;DHT22;29895;48.804;9.386;2024-03-08T09:18:30;4.20;99.90
44223;DHT22;29895;48.804;9.386;2024-03-08T09:20:58;4.30;99.90
44223;DHT22;29895;48.804;9.386;2024-03-08T09:23:23;4.40;99.90
44223;DHT22;29895;48.804;9.386;2024-03-08T09:25:51;4.40;99.90
44223;DHT22;29895;48.804;9.386;2024-03-08T09:28:17;4.50;99.90
44223;DHT22;29895;48.804;9.386;2024-03-08T09:30:42;4.40;99.90
44223;DHT22;29895;48.804;9.386;2024-03-08T09:33:10;4.30;99.90
44223;DHT22;29895;48.804;9.386;2024-03-08T09:35:36;4.50;99.90
44223;DHT22;29895;48.804;9.386;2024-03-08T09:38:02;4.70;99.90
44223;DHT22;29895;48.804;9.386;2024-03-08T09:40:30;4.70;99.90
44223;DHT22;29895;48.804;9.386;2024-03-08T09:42:56;4.70;99.90
44223;DHT22;29895;48.804;9.386;2024-03-08T09:45:23;4.70;99.90
44223;DHT22;29895;48.804;9.386;2024-03-08T09:47:50;4.60;99.90
44223;DHT22;29895;48.804;9.386;2024-03-08T09:50:17;4.70;99.90
44223;DHT22;29895;48.804;9.386;2024-03-08T09:52:47;4.70;99.90
44223;DHT22;29895;48.804;9.386;2024-03-08T09:55:13;4.70;99.90
44223;DHT22;29895;48.804;9.386;2024-03-08T09:57:40;4.70;99.90
44223;DHT22;29895;48.804;9.386;2024-03-08T10:00:06;4.60;99.90
44223;DHT22;29895;48.804;9.386;2024-03-08T10:02:50;4.60;99.90
44223;DHT22;29895;48.804;9.386;2024-03-08T10:05:18;4.90;99.90
44223;DHT22;29895;48.804;9.386;2024-03-08T10:07:44;5.10;99.90
44223;DHT22;29895;48.804;9.386;2024-03-08T10:10:09;5.30;99.90
44223;DHT22;29895;48.804;9.386;2024-03-08T10:12:38;5.60;99.90
44223;DHT22;29895;48.804;9.386;2024-03-08T10:15:07;5.80;99.90
44223;DHT22;29895;48.804;9.386;2024-03-08T10:17:34;6.00;99.90
44223;DHT22;29895;48.804;9.386;2024-03-08T10:20:00;6.00;99.90
44223;DHT22;29895;48.804;9.386;2024-03-08T10:22:26;5.90;99.90
44223;DHT22;29895;48.804;9.386;2024-03-08T10:24:52;5.80;99.90
44223;DHT22;29895;48.804;9.386;2024-03-08T10:27:18;5.80;99.90
44223;DHT22;29895;48.804;9.386;2024-03-08T10:29:47;5.80;99.90
44223;DHT22;29895;48.804;9.386;2024-03-08T10:32:13;6.00;99.90
44223;DHT22;29895;48.804;9.386;2024-03-08T10:34:39;6.30;99.90
44223;DHT22;29895;48.804;9.386;2024-03-08T10:37:07;6.70;99.90
44223;DHT22;29895;48.804;9.386;2024-03-08T10:39:37;6.60;99.90
44223;DHT22;29895;48.804;9.386;2024-03-08T10:42:04;6.50;99.90
44223;DHT22;29895;48.804;9.386;2024-03-08T10:47:24;6.30;99.90
44223;DHT22;29895;48.804;9.386;2024-03-08T10:49:55;6.30;99.90
44223;DHT22;29895;48.804;9.386;2024-03-08T10:52:29;6.60;99.90
44223;DHT22;29895;48.804;9.386;2024-03-08T10:54:56;7.00;99.90
44223;DHT22;29895;48.804;9.386;2024-03-08T10:57:22;7.30;99.90
44223;DHT22;29895;48.804;9.386;2024-03-08T10:59:49;7.40;99.90
44223;DHT22;29895;48.804;9.386;2024-03-08T11:02:17;7.50;99.90
44223;DHT22;29895;48.804;9.386;2024-03-08T11:04:48;7.70;99.90
44223;DHT22;29895;48.804;9.386;2024-03-08T11:07:15;7.90;99.90
44223;DHT22;29895;48.804;9.386;2024-03-08T11:09:47;8.20;99.90
44223;DHT22;29895;48.804;9.386;2024-03-08T11:14:55;8.80;99.90
44223;DHT22;29895;48.804;9.386;2024-03-08T11:19:48;8.90;99.90
44223;DHT22;29895;48.804;9.386;2024-03-08T11:22:22;8.80;99.90
44223;DHT22;29895;48.804;9.386;2024-03-08T11:24:49;8.70;99.90
44223;DHT22;29895;48.804;9.386;2024-03-08T11:27:15;8.90;99.90
44223;DHT22;29895;48.804;9.386;2024-03-08T11:29:41;9.00;99.90
44223;DHT22;29895;48.804;9.386;2024-03-08T11:32:16;8.80;99.90
44223;DHT22;29895;48.804;9.386;2024-03-08T11:34:48;8.40;99.90
44223;DHT22;29895;48.804;9.386;2024-03-08T11:37:19;7.90;99.90
44223;DHT22;29895;48.804;9.386;2024-03-08T11:39:51;7.30;99.90
44223;DHT22;29895;48.804;9.386;2024-03-08T11:42:17;7.10;99.90
44223;DHT22;29895;48.804;9.386;2024-03-08T11:44:47;7.10;99.90
44223;DHT22;29895;48.804;9.386;2024-03-08T11:47:14;7.10;99.90
44223;DHT22;29895;48.804;9.386;2024-03-08T11:49:40;7.30;99.90
44223;DHT22;29895;48.804;9.386;2024-03-08T11:52:14;7.50;99.90
44223;DHT22;29895;48.804;9.386;2024-03-08T11:54:56;7.60;99.90
44223;DHT22;29895;48.804;9.386;2024-03-08T11:57:23;7.50;99.90
44223;DHT22;29895;48.804;9.386;2024-03-08T11:59:52;7.40;99.90
44223;DHT22;29895;48.804;9.386;2024-03-08T12:02:18;7.40;99.90
44223;DHT22;29895;48.804;9.386;2024-03-08T12:04:59;7.70;99.90
44223;DHT22;29895;48.804;9.386;2024-03-08T12:07:25;8.00;99.90
44223;DHT22;29895;48.804;9.386;2024-03-08T12:10:18;8.20;99.90
44223;DHT22;29895;48.804;9.386;2024-03-08T12:12:49;8.20;99.90
44223;DHT22;29895;48.804;9.386;2024-03-08T12:15:17;8.40;99.90
44223;DHT22;29895;48.804;9.386;2024-03-08T12:17:44;8.50;99.90
44223;DHT22;29895;48.804;9.386;2024-03-08T12:20:16;8.60;99.90
44223;DHT22;29895;48.804;9.386;2024-03-08T12:22:43;8.60;99.90
44223;DHT22;29895;48.804;9.386;2024-03-08T12:25:11;8.70;99.90
44223;DHT22;29895;48.804;9.386;2024-03-08T12:27:38;8.60;99.90
44223;DHT22;29895;48.804;9.386;2024-03-08T12:35:23;8.40;99.90
44223;DHT22;29895;48.804;9.386;2024-03-08T12:37:59;8.10;99.90
44223;DHT22;29895;48.804;9.386;2024-03-08T12:40:30;8.00;99.90
44223;DHT22;29895;48.804;9.386;2024-03-08T12:43:00;8.10;99.90
44223;DHT22;29895;48.804;9.386;2024-03-08T12:45:27;8.40;99.90
44223;DHT22;29895;48.804;9.386;2024-03-08T12:47:53;8.50;99.90
44223;DHT22;29895;48.804;9.386;2024-03-08T12:50:20;8.40;99.90
44223;DHT22;29895;48.804;9.386;2024-03-08T12:52:46;8.20;99.90
44223;DHT22;29895;48.804;9.386;2024-03-08T12:55:12;8.50;99.90
44223;DHT22;29895;48.804;9.386;2024-03-08T12:57:38;8.60;99.90
44223;DHT22;29895;48.804;9.386;2024-03-08T13:00:04;8.50;99.90
44223;DHT22;29895;48.804;9.386;2024-03-08T13:02:31;8.60;99.90
44223;DHT22;29895;48.804;9.386;2024-03-08T13:04:58;8.80;99.90
44223;DHT22;29895;48.804;9.386;2024-03-08T13:07:25;8.90;99.90
44223;DHT22;29895;48.804;9.386;2024-03-08T13:09:54;8.90;99.90
44223;DHT22;29895;48.804;9.386;2024-03-08T13:12:21;8.90;99.90
44223;DHT22;29895;48.804;9.386;2024-03-08T13:14:47;9.10;99.90
44223;DHT22;29895;48.804;9.386;2024-03-08T13:17:16;9.30;99.90
44223;DHT22;29895;48.804;9.386;2024-03-08T13:19:42;9.20;99.90
44223;DHT22;29895;48.804;9.386;2024-03-08T13:22:08;9.20;99.90
44223;DHT22;29895;48.804;9.386;2024-03-08T13:24:41;9.30;99.90
44223;DHT22;29895;48.804;9.386;2024-03-08T13:27:08;9.40;99.90
44223;DHT22;29895;48.804;9.386;2024-03-08T13:29:48;9.50;99.90
44223;DHT22;29895;48.804;9.386;2024-03-08T13:32:15;9.50;99.90
44223;DHT22;29895;48.804;9.386;2024-03-08T13:34:42;9.60;99.90
44223;DHT22;29895;48.804;9.386;2024-03-08T13:37:08;9.60;99.90
44223;DHT22;29895;48.804;9.386;2024-03-08T13:39:35;9.60;99.90
44223;DHT22;29895;48.804;9.386;2024-03-08T13:42:14;9.40;99.90
44223;DHT22;29895;48.804;9.386;2024-03-08T13:44:45;9.30;99.90
44223;DHT22;29895;48.804;9.386;2024-03-08T13:47:13;9.40;99.90
44223;DHT22;29895;48.804;9.386;2024-03-08T13:49:39;9.40;99.90
44223;DHT22;29895;48.804;9.386;2024-03-08T13:52:05;9.60;99.90
44223;DHT22;29895;48.804;9.386;2024-03-08T13:54:31;9.70;99.90
44223;DHT22;29895;48.804;9.386;2024-03-08T13:56:57;9.70;99.90
44223;DHT22;29895;48.804;9.386;2024-03-08T13:59:23;9.40;99.90
44223;DHT22;29895;48.804;9.386;2024-03-08T14:01:49;9.30;99.90
44223;DHT22;29895;48.804;9.386;2024-03-08T14:04:16;9.20;99.90
44223;DHT22;29895;48.804;9.386;2024-03-08T14:06:44;9.10;99.90
44223;DHT22;29895;48.804;9.386;2024-03-08T14:09:11;9.20;99.90
44223;DHT22;29895;48.804;9.386;2024-03-08T14:11:43;9.20;99.90
44223;DHT22;29895;48.804;9.386;2024-03-08T14:14:10;9.20;99.90
44223;DHT22;29895;48.804;9.386;2024-03-08T14:16:40;9.30;99.90
44223;DHT22;29895;48.804;9.386;2024-03-08T14:19:06;9.40;99.90
44223;DHT22;29895;48.804;9.386;2024-03-08T14:21:32;9.40;99.90
44223;DHT22;29895;48.804;9.386;2024-03-08T14:23:58;9.50;99.90
44223;DHT22;29895;48.804;9.386;2024-03-08T14:26:24;9.60;99.90
44223;DHT22;29895;48.804;9.386;2024-03-08T14:28:50;9.60;99.90
44223;DHT22;29895;48.804;9.386;2024-03-08T14:31:20;9.60;99.90
44223;DHT22;29895;48.804;9.386;2024-03-08T14:33:49;9.70;99.90
44223;DHT22;29895;48.804;9.386;2024-03-08T14:36:15;9.80;99.90
44223;DHT22;29895;48.804;9.386;2024-03-08T14:38:43;9.80;99.90
44223;DHT22;29895;48.804;9.386;2024-03-08T14:41:08;10.00;99.90
44223;DHT22;29895;48.804;9.386;2024-03-08T14:43:34;10.10;99.90
44223;DHT22;29895;48.804;9.386;2024-03-08T14:46:00;10.10;99.90
44223;DHT22;29895;48.804;9.386;2024-03-08T14:48:26;10.20;99.90
44223;DHT22;29895;48.804;9.386;2024-03-08T14:50:52;10.30;99.90
44223;DHT22;29895;48.804;9.386;2024-03-08T14:53:18;10.40;99.90
44223;DHT22;29895;48.804;9.386;2024-03-08T14:55:44;10.40;99.90
44223;DHT22;29895;48.804;9.386;2024-03-08T14:58:13;10.40;99.90
44223;DHT22;29895;48.804;9.386;2024-03-08T15:00:38;10.50;99.90
44223;DHT22;29895;48.804;9.386;2024-03-08T15:03:07;10.50;99.90
44223;DHT22;29895;48.804;9.386;2024-03-08T15:05:35;10.50;99.90
44223;DHT22;29895;48.804;9.386;2024-03-08T15:08:03;10.40;99.90
44223;DHT22;29895;48.804;9.386;2024-03-08T15:10:35;10.30;99.90
44223;DHT22;29895;48.804;9.386;2024-03-08T15:13:00;10.30;99.90
44223;DHT22;29895;48.804;9.386;2024-03-08T15:15:29;10.30;99.90
44223;DHT22;29895;48.804;9.386;2024-03-08T15:17:55;10.40;99.90
44223;DHT22;29895;48.804;9.386;2024-03-08T15:20:23;10.40;99.90
44223;DHT22;29895;48.804;9.386;2024-03-08T15:22:50;10.40;99.90
44223;DHT22;29895;48.804;9.386;2024-03-08T15:25:20;10.50;99.90
44223;DHT22;29895;48.804;9.386;2024-03-08T15:27:51;10.50;99.90
44223;DHT22;29895;48.804;9.386;2024-03-08T15:30:17;10.50;99.90
44223;DHT22;29895;48.804;9.386;2024-03-08T15:32:48;10.50;99.90
44223;DHT22;29895;48.804;9.386;2024-03-08T15:35:16;10.40;99.90
44223;DHT22;29895;48.804;9.386;2024-03-08T15:37:43;10.50;99.90
44223;DHT22;29895;48.804;9.386;2024-03-08T15:40:14;10.50;99.90
44223;DHT22;29895;48.804;9.386;2024-03-08T15:45:20;10.40;99.90
44223;DHT22;29895;48.804;9.386;2024-03-08T15:47:45;10.40;99.90
44223;DHT22;29895;48.804;9.386;2024-03-08T15:50:11;10.40;99.90
44223;DHT22;29895;48.804;9.386;2024-03-08T15:52:38;10.30;99.90
44223;DHT22;29895;48.804;9.386;2024-03-08T15:55:07;10.30;99.90
44223;DHT22;29895;48.804;9.386;2024-03-08T15:57:33;10.40;99.90
44223;DHT22;29895;48.804;9.386;2024-03-08T15:59:59;10.30;99.90
44223;DHT22;29895;48.804;9.386;2024-03-08T16:02:26;10.40;99.90